createdAt,value
2018-02-25T00:02:16.805Z,10.43
2018-02-25T00:04:45.032Z,10.30
2018-02-25T00:07:12.514Z,9.43
2018-02-25T00:09:39.985Z,10.50
2018-02-25T00:12:08.240Z,9.50
2018-02-25T00:14:35.714Z,9.60
2018-02-25T00:17:03.186Z,10.30
2018-02-25T00:19:31.427Z,10.53
2018-02-25T00:21:58.896Z,10.47
2018-02-25T00:24:26.386Z,10.87
2018-02-25T00:26:54.620Z,9.50
2018-02-25T00:29:22.117Z,9.43
2018-02-25T00:31:50.339Z,9.40
2018-02-25T00:34:17.832Z,10.77
2018-02-25T00:36:45.301Z,9.73
2018-02-25T00:39:13.548Z,10.93
2018-02-25T00:41:41.016Z,11.23
2018-02-25T00:44:08.484Z,11.17
2018-02-25T00:46:36.717Z,10.20
2018-02-25T00:49:04.190Z,11.50
2018-02-25T00:51:31.660Z,11.00
2018-02-25T00:53:59.138Z,10.63
2018-02-25T00:56:27.366Z,9.90
2018-02-25T00:58:54.832Z,10.30
2018-02-25T01:01:22.315Z,10.57
2018-02-25T01:03:49.790Z,11.67
2018-02-25T01:06:17.252Z,10.30
2018-02-25T01:08:45.496Z,10.10
2018-02-25T01:11:12.968Z,9.40
2018-02-25T01:13:40.436Z,9.60
2018-02-25T01:16:08.669Z,9.63
2018-02-25T01:18:36.144Z,8.90
2018-02-25T01:21:03.616Z,10.27
2018-02-25T01:23:31.079Z,9.70
2018-02-25T01:25:59.310Z,9.97
2018-02-25T01:28:26.779Z,9.07
2018-02-25T01:30:54.250Z,9.50
2018-02-25T01:33:21.739Z,10.27
2018-02-25T01:35:49.968Z,9.67
2018-02-25T01:38:17.447Z,9.53
2018-02-25T01:40:44.920Z,9.30
2018-02-25T01:43:13.174Z,10.63
2018-02-25T01:45:40.660Z,9.90
2018-02-25T01:48:08.902Z,8.77
2018-02-25T01:50:48.201Z,9.50
2018-02-25T01:53:15.668Z,10.00
2018-02-25T01:55:43.139Z,10.10
2018-02-25T01:58:10.622Z,10.03
2018-02-25T02:00:39.105Z,9.83
2018-02-25T02:03:06.567Z,9.20
2018-02-25T02:05:34.041Z,8.10
2018-02-25T02:08:02.273Z,9.33
2018-02-25T02:10:29.746Z,9.37
2018-02-25T02:12:57.217Z,9.47
2018-02-25T02:15:24.684Z,8.60
2018-02-25T02:17:52.911Z,8.43
2018-02-25T02:20:20.396Z,9.30
2018-02-25T02:22:47.866Z,9.60
2018-02-25T02:25:15.338Z,9.43
2018-02-25T02:27:43.573Z,9.00
2018-02-25T02:30:11.044Z,8.93
2018-02-25T02:32:38.521Z,8.87
2018-02-25T02:35:06.759Z,9.60
2018-02-25T02:37:34.223Z,9.80
2018-02-25T02:40:01.695Z,8.17
2018-02-25T02:42:29.164Z,8.10
2018-02-25T02:44:56.638Z,7.70
2018-02-25T02:47:24.102Z,8.80
2018-02-25T02:49:52.335Z,8.30
2018-02-25T02:52:19.810Z,8.67
2018-02-25T02:54:47.289Z,8.47
2018-02-25T02:57:15.517Z,8.57
2018-02-25T02:59:42.992Z,8.60
2018-02-25T03:02:10.467Z,8.47
2018-02-25T03:04:38.709Z,8.63
2018-02-25T03:07:06.181Z,9.60
2018-02-25T03:09:33.664Z,9.97
2018-02-25T03:12:01.903Z,8.10
2018-02-25T03:14:29.391Z,8.17
2018-02-25T03:16:57.612Z,8.57
2018-02-25T03:19:25.083Z,8.03
2018-02-25T03:21:52.561Z,8.40
2018-02-25T03:24:20.034Z,8.70
2018-02-25T03:26:47.500Z,9.50
2018-02-25T03:29:15.742Z,8.90
2018-02-25T03:31:43.222Z,8.97
2018-02-25T03:34:10.691Z,8.37
2018-02-25T03:36:38.998Z,8.63
2018-02-25T03:39:06.464Z,8.13
2018-02-25T03:41:33.936Z,8.30
2018-02-25T03:44:01.398Z,8.80
2018-02-25T03:46:28.876Z,8.30
2018-02-25T03:48:56.347Z,8.63
2018-02-25T03:51:24.094Z,8.60
2018-02-25T03:53:51.565Z,7.90
2018-02-25T03:56:19.032Z,9.50
2018-02-25T03:58:47.265Z,8.13
2018-02-25T04:01:14.739Z,8.27
2018-02-25T04:03:42.200Z,7.60
2018-02-25T04:06:09.683Z,8.83
2018-02-25T04:08:37.919Z,7.67
2018-02-25T04:11:05.402Z,7.80
2018-02-25T04:13:32.878Z,10.00
2018-02-25T04:16:01.116Z,8.70
2018-02-25T04:18:28.598Z,7.70
2018-02-25T04:20:56.074Z,8.93
2018-02-25T04:23:24.302Z,7.70
2018-02-25T04:25:51.780Z,7.63
2018-02-25T04:28:19.247Z,7.30
2018-02-25T04:30:46.721Z,8.17
2018-02-25T04:33:14.969Z,7.90
2018-02-25T04:35:42.438Z,8.63
2018-02-25T04:38:09.903Z,8.30
2018-02-25T04:40:38.152Z,8.97
2018-02-25T04:43:05.625Z,8.23
2018-02-25T04:45:33.099Z,7.77
2018-02-25T04:48:00.564Z,9.10
2018-02-25T04:53:03.403Z,8.17
2018-02-25T04:55:31.645Z,6.73
2018-02-25T04:57:59.109Z,9.43
2018-02-25T05:00:26.591Z,8.37
2018-02-25T05:02:54.061Z,8.87
2018-02-25T05:05:27.864Z,7.77
2018-02-25T05:07:58.283Z,7.83
2018-02-25T05:10:26.038Z,7.97
2018-02-25T05:12:53.499Z,7.77
2018-02-25T05:15:20.982Z,7.17
2018-02-25T05:17:48.521Z,8.40
2018-02-25T05:20:15.989Z,7.57
2018-02-25T05:22:43.454Z,7.73
2018-02-25T05:25:10.921Z,7.20
2018-02-25T05:27:38.412Z,7.70
2018-02-25T05:30:06.658Z,7.60
2018-02-25T05:32:34.132Z,8.17
2018-02-25T05:35:03.466Z,7.37
2018-02-25T05:37:30.965Z,7.47
2018-02-25T05:39:58.427Z,7.97
2018-02-25T05:42:25.901Z,7.00
2018-02-25T05:44:53.367Z,7.87
2018-02-25T05:47:20.839Z,7.60
2018-02-25T05:49:49.084Z,7.47
2018-02-25T05:52:16.548Z,8.13
2018-02-25T05:54:44.048Z,7.10
2018-02-25T05:57:12.263Z,7.30
2018-02-25T05:59:39.725Z,7.10
2018-02-25T06:02:07.245Z,8.80
2018-02-25T06:04:34.712Z,7.70
2018-02-25T06:07:02.355Z,7.03
2018-02-25T06:09:29.821Z,8.07
2018-02-25T06:11:57.287Z,7.00
2018-02-25T06:14:24.771Z,7.50
2018-02-25T06:16:52.257Z,7.97
2018-02-25T06:19:19.721Z,8.10
2018-02-25T06:21:47.969Z,8.33
2018-02-25T06:24:15.432Z,6.90
2018-02-25T06:26:42.925Z,7.13
2018-02-25T06:29:10.394Z,8.47
2018-02-25T06:31:37.864Z,7.60
2018-02-25T06:34:05.341Z,8.20
2018-02-25T06:36:32.824Z,7.87
2018-02-25T06:39:01.083Z,7.50
2018-02-25T06:41:28.566Z,7.83
2018-02-25T06:43:56.025Z,8.13
2018-02-25T06:46:23.517Z,8.47
2018-02-25T06:48:51.002Z,7.17
2018-02-25T06:51:18.483Z,8.33
2018-02-25T06:53:45.956Z,7.63
2018-02-25T06:56:13.428Z,8.00
2018-02-25T06:58:40.888Z,7.03
2018-02-25T07:01:09.130Z,7.43
2018-02-25T07:03:36.601Z,8.23
2018-02-25T07:06:04.089Z,7.93
2018-02-25T07:08:31.552Z,7.07
2018-02-25T07:10:59.019Z,8.53
2018-02-25T07:13:26.508Z,7.17
2018-02-25T07:15:53.971Z,7.50
2018-02-25T07:18:21.444Z,8.10
2018-02-25T07:20:48.912Z,7.50
2018-02-25T07:23:16.384Z,8.50
2018-02-25T07:25:45.463Z,7.40
2018-02-25T07:28:12.932Z,7.90
2018-02-25T07:30:41.186Z,8.33
2018-02-25T07:33:08.706Z,9.03
2018-02-25T07:35:47.568Z,7.70
2018-02-25T07:38:15.542Z,8.20
2018-02-25T07:40:43.057Z,8.63
2018-02-25T07:43:10.531Z,9.30
2018-02-25T07:45:37.994Z,8.13
2018-02-25T07:48:05.495Z,8.37
2018-02-25T07:50:33.728Z,8.70
2018-02-25T07:53:01.204Z,7.47
2018-02-25T07:55:28.676Z,8.27
2018-02-25T07:57:56.148Z,8.50
2018-02-25T08:00:23.608Z,9.50
2018-02-25T08:02:51.840Z,7.53
2018-02-25T08:05:20.323Z,9.20
2018-02-25T08:07:47.805Z,8.10
2018-02-25T08:10:15.268Z,8.80
2018-02-25T08:12:43.513Z,9.13
2018-02-25T08:15:10.973Z,9.53
2018-02-25T08:17:38.453Z,8.40
2018-02-25T08:20:05.913Z,9.17
2018-02-25T08:22:33.389Z,9.10
2018-02-25T08:25:01.628Z,8.40
2018-02-25T08:27:29.122Z,9.63
2018-02-25T08:29:57.353Z,8.87
2018-02-25T08:32:24.896Z,9.07
2018-02-25T08:34:52.359Z,8.67
2018-02-25T08:37:19.849Z,9.70
2018-02-25T08:39:47.308Z,9.77
2018-02-25T08:42:14.786Z,8.17
2018-02-25T08:44:42.352Z,9.50
2018-02-25T08:47:09.836Z,9.23
2018-02-25T08:49:37.305Z,8.97
2018-02-25T08:52:04.775Z,8.90
2018-02-25T08:54:32.243Z,9.00
2018-02-25T08:56:59.725Z,8.87
2018-02-25T08:59:27.959Z,9.20
2018-02-25T09:01:55.422Z,8.30
2018-02-25T09:04:22.884Z,9.37
2018-02-25T09:06:50.340Z,9.37
2018-02-25T09:09:17.813Z,9.97
2018-02-25T09:11:45.266Z,8.03
2018-02-25T09:14:12.732Z,9.83
2018-02-25T09:16:40.204Z,10.07
2018-02-25T09:19:07.673Z,9.97
2018-02-25T09:21:35.891Z,9.53
2018-02-25T09:24:03.431Z,9.80
2018-02-25T09:26:30.885Z,9.43
2018-02-25T09:28:58.356Z,9.47
2018-02-25T09:31:25.821Z,9.70
2018-02-25T09:33:53.293Z,9.00
2018-02-25T09:36:20.820Z,9.87
2018-02-25T09:38:48.294Z,8.80
2018-02-25T09:41:15.768Z,9.40
2018-02-25T09:43:43.236Z,10.37
2018-02-25T09:46:10.692Z,9.00
2018-02-25T09:48:38.153Z,9.33
2018-02-25T09:51:05.631Z,9.57
2018-02-25T09:53:33.920Z,9.50
2018-02-25T09:56:01.389Z,8.77
2018-02-25T09:58:28.894Z,10.00
2018-02-25T10:00:56.345Z,8.43
2018-02-25T10:03:24.246Z,8.80
2018-02-25T10:05:52.505Z,9.03
2018-02-25T10:08:20.049Z,8.37
2018-02-25T10:10:47.583Z,8.17
2018-02-25T10:13:15.107Z,9.30
2018-02-25T10:15:43.361Z,9.67
2018-02-25T10:18:10.852Z,8.70
2018-02-25T10:20:38.326Z,8.47
2018-02-25T10:23:05.799Z,8.10
2018-02-25T10:25:33.268Z,8.57
2018-02-25T10:28:01.528Z,9.07
2018-02-25T10:30:29.067Z,8.47
2018-02-25T10:32:56.526Z,8.90
2018-02-25T10:35:24.086Z,8.43
2018-02-25T10:37:51.564Z,8.63
2018-02-25T10:40:19.139Z,8.23
2018-02-25T10:42:46.800Z,8.50
2018-02-25T10:45:14.353Z,9.57
2018-02-25T10:47:41.919Z,9.07
2018-02-25T10:50:09.475Z,8.50
2018-02-25T10:52:36.959Z,7.37
2018-02-25T10:55:04.481Z,8.17
2018-02-25T10:57:31.947Z,8.30
2018-02-25T10:59:59.416Z,7.40
2018-02-25T11:02:26.875Z,7.90
2018-02-25T11:04:54.367Z,8.00
2018-02-25T11:07:22.632Z,7.70
2018-02-25T11:09:50.105Z,8.93
2018-02-25T11:12:18.331Z,8.53
2018-02-25T11:14:45.797Z,7.07
2018-02-25T11:17:13.266Z,7.07
2018-02-25T11:19:40.737Z,8.50
2018-02-25T11:22:08.233Z,8.00
2018-02-25T11:24:35.726Z,7.77
2018-02-25T11:27:03.229Z,6.50
2018-02-25T11:29:31.492Z,7.23
2018-02-25T11:31:59.727Z,7.10
2018-02-25T11:34:27.205Z,6.87
2018-02-25T11:36:54.693Z,6.93
2018-02-25T11:39:22.172Z,6.33
2018-02-25T11:41:49.648Z,6.40
2018-02-25T11:44:17.135Z,7.57
2018-02-25T11:46:44.610Z,6.70
2018-02-25T11:49:12.141Z,7.20
2018-02-25T11:51:39.644Z,6.60
2018-02-25T11:54:07.935Z,7.27
2018-02-25T11:56:35.426Z,7.23
2018-02-25T11:59:02.934Z,5.67
2018-02-25T12:01:31.182Z,6.87
2018-02-25T12:03:58.666Z,6.53
2018-02-25T12:06:26.926Z,6.30
2018-02-25T12:08:54.409Z,6.20
2018-02-25T12:11:21.967Z,6.33
2018-02-25T12:13:50.241Z,5.47
2018-02-25T12:16:18.594Z,5.73
2018-02-25T12:18:46.108Z,5.20
2018-02-25T12:21:13.618Z,5.80
2018-02-25T12:23:41.150Z,5.83
2018-02-25T12:26:08.662Z,5.50
2018-02-25T12:28:36.206Z,5.20
2018-02-25T12:31:05.354Z,6.13
2018-02-25T12:33:32.896Z,6.10
2018-02-25T12:36:00.437Z,6.00
2018-02-25T12:38:27.974Z,5.27
2018-02-25T12:40:56.263Z,5.10
2018-02-25T12:43:24.497Z,5.20
2018-02-25T12:45:51.994Z,5.97
2018-02-25T12:48:20.306Z,4.93
2018-02-25T12:50:47.823Z,5.37
2018-02-25T12:53:16.098Z,5.40
2018-02-25T12:55:44.464Z,4.77
2018-02-25T12:58:12.022Z,5.67
2018-02-25T13:00:39.501Z,4.60
2018-02-25T13:03:07.753Z,5.27
2018-02-25T13:05:35.288Z,4.60
2018-02-25T13:08:02.799Z,5.50
2018-02-25T13:10:31.054Z,4.50
2018-02-25T13:12:58.535Z,4.47
2018-02-25T13:15:26.812Z,5.50
2018-02-25T13:17:54.686Z,4.87
2018-02-25T13:20:22.937Z,3.80
2018-02-25T13:22:51.233Z,4.50
2018-02-25T13:25:19.491Z,4.30
2018-02-25T13:27:47.781Z,4.50
2018-02-25T13:30:16.024Z,4.33
2018-02-25T13:32:43.538Z,4.67
2018-02-25T13:35:11.064Z,3.50
2018-02-25T13:37:38.991Z,5.30
2018-02-25T13:40:06.491Z,4.50
2018-02-25T13:42:34.742Z,4.13
2018-02-25T13:45:02.238Z,4.50
2018-02-25T13:47:30.502Z,5.00
2018-02-25T13:49:58.023Z,4.27
2018-02-25T13:52:25.496Z,4.37
2018-02-25T13:54:53.013Z,3.77
2018-02-25T13:57:20.526Z,3.70
2018-02-25T13:59:48.019Z,4.20
2018-02-25T14:02:15.595Z,3.40
2018-02-25T14:04:43.121Z,4.17
2018-02-25T14:07:11.388Z,4.53
2018-02-25T14:09:38.877Z,3.43
2018-02-25T14:12:06.389Z,3.60
2018-02-25T14:14:33.859Z,3.90
2018-02-25T14:17:01.350Z,3.80
2018-02-25T14:19:28.840Z,3.40
2018-02-25T14:21:56.349Z,3.93
2018-02-25T14:24:24.589Z,4.17
2018-02-25T14:26:52.145Z,3.83
2018-02-25T14:29:19.626Z,4.00
2018-02-25T14:31:47.108Z,3.50
2018-02-25T14:34:15.351Z,3.50
2018-02-25T14:36:42.825Z,4.77
2018-02-25T14:39:11.078Z,3.63
2018-02-25T14:41:38.774Z,3.40
2018-02-25T14:44:07.037Z,3.50
2018-02-25T14:46:34.558Z,4.20
2018-02-25T14:49:02.246Z,3.47
2018-02-25T14:51:29.743Z,3.43
2018-02-25T14:53:57.221Z,3.40
2018-02-25T14:56:25.729Z,3.43
2018-02-25T14:58:53.232Z,3.03
2018-02-25T15:01:21.476Z,3.23
2018-02-25T15:03:48.990Z,3.67
2018-02-25T15:06:17.653Z,3.47
2018-02-25T15:08:45.131Z,2.80
2018-02-25T15:11:12.625Z,3.30
2018-02-25T15:13:40.109Z,3.57
2018-02-25T15:16:08.362Z,3.80
2018-02-25T15:18:35.849Z,3.97
2018-02-25T15:21:04.121Z,3.77
2018-02-25T15:23:31.588Z,3.73
2018-02-25T15:25:59.811Z,3.30
2018-02-25T15:28:27.286Z,3.10
2018-02-25T15:30:54.807Z,3.50
2018-02-25T15:33:22.448Z,3.40
2018-02-25T15:35:50.026Z,3.27
2018-02-25T15:38:17.523Z,4.20
2018-02-25T15:40:45.115Z,3.00
2018-02-25T15:43:12.582Z,4.00
2018-02-25T15:45:40.831Z,3.73
2018-02-25T15:48:08.302Z,4.33
2018-02-25T15:50:35.756Z,3.60
2018-02-25T15:53:03.272Z,3.03
2018-02-25T15:55:30.803Z,3.03
2018-02-25T15:57:58.275Z,3.93
2018-02-25T16:00:25.815Z,3.33
2018-02-25T16:02:53.365Z,2.87
2018-02-25T16:05:21.593Z,3.03
2018-02-25T16:07:49.069Z,3.50
2018-02-25T16:10:16.520Z,3.37
2018-02-25T16:12:44.011Z,3.10
2018-02-25T16:15:12.240Z,3.20
2018-02-25T16:17:39.906Z,3.03
2018-02-25T16:20:07.429Z,3.30
2018-02-25T16:22:34.905Z,2.90
2018-02-25T16:25:02.364Z,3.53
2018-02-25T16:27:29.837Z,3.50
2018-02-25T16:29:57.313Z,3.90
2018-02-25T16:32:24.786Z,3.47
2018-02-25T16:34:53.021Z,3.53
2018-02-25T16:37:20.495Z,3.57
2018-02-25T16:39:48.070Z,3.80
2018-02-25T16:42:15.557Z,3.47
2018-02-25T16:44:43.789Z,3.40
2018-02-25T16:47:11.261Z,3.40
2018-02-25T16:49:38.721Z,3.60
2018-02-25T16:52:06.964Z,3.20
2018-02-25T16:54:34.462Z,3.60
2018-02-25T16:57:01.946Z,3.30
2018-02-25T16:59:29.407Z,3.60
2018-02-25T17:01:56.876Z,5.03
2018-02-25T17:04:24.362Z,4.50
2018-02-25T17:06:52.022Z,3.07
2018-02-25T17:09:19.514Z,3.83
2018-02-25T17:11:47.753Z,3.70
2018-02-25T17:14:15.231Z,3.10
2018-02-25T17:16:42.711Z,3.57
2018-02-25T17:19:10.942Z,4.10
2018-02-25T17:21:38.405Z,4.03
2018-02-25T17:24:05.900Z,4.17
2018-02-25T17:26:34.145Z,4.50
2018-02-25T17:29:01.608Z,3.53
2018-02-25T17:31:29.166Z,4.10
2018-02-25T17:33:56.714Z,3.57
2018-02-25T17:36:24.201Z,3.90
2018-02-25T17:38:53.512Z,4.60
2018-02-25T17:41:21.794Z,4.70
2018-02-25T17:43:50.058Z,3.67
2018-02-25T17:46:18.366Z,4.87
2018-02-25T17:48:46.464Z,4.90
2018-02-25T17:51:14.018Z,4.73
2018-02-25T17:53:42.330Z,3.83
2018-02-25T17:56:09.863Z,4.30
2018-02-25T17:58:37.517Z,4.83
2018-02-25T18:01:05.094Z,3.87
2018-02-25T18:03:32.591Z,3.80
2018-02-25T18:06:00.840Z,3.50
2018-02-25T18:08:28.325Z,3.40
2018-02-25T18:10:56.577Z,4.33
2018-02-25T18:13:24.051Z,4.60
2018-02-25T18:15:52.290Z,4.40
2018-02-25T18:18:19.776Z,3.70
2018-02-25T18:20:47.271Z,4.70
2018-02-25T18:23:14.740Z,3.50
2018-02-25T18:25:42.397Z,4.63
2018-02-25T18:28:10.644Z,4.23
2018-02-25T18:30:40.890Z,4.07
2018-02-25T18:33:09.234Z,4.43
2018-02-25T18:35:37.570Z,3.90
2018-02-25T18:38:05.130Z,4.40
2018-02-25T18:40:32.619Z,4.07
2018-02-25T18:43:00.098Z,4.60
2018-02-25T18:45:28.348Z,4.80
2018-02-25T18:47:55.858Z,5.07
2018-02-25T18:50:23.358Z,4.90
2018-02-25T18:52:50.859Z,4.20
2018-02-25T18:55:18.345Z,4.60
2018-02-25T18:57:45.932Z,4.53
2018-02-25T19:00:13.412Z,4.30
2018-02-25T19:02:40.941Z,4.00
2018-02-25T19:05:08.424Z,3.90
2018-02-25T19:07:35.912Z,5.20
2018-02-25T19:10:03.448Z,4.47
2018-02-25T19:12:31.876Z,5.20
2018-02-25T19:14:59.419Z,5.00
2018-02-25T19:17:26.961Z,4.90
2018-02-25T19:19:54.538Z,6.53
2018-02-25T19:22:22.091Z,5.30
2018-02-25T19:24:49.734Z,5.57
2018-02-25T19:27:18.070Z,4.70
2018-02-25T19:29:45.658Z,5.43
2018-02-25T19:32:13.329Z,6.00
2018-02-25T19:34:41.644Z,5.30
2018-02-25T19:37:15.081Z,6.40
2018-02-25T19:39:49.141Z,5.47
2018-02-25T19:42:16.668Z,6.03
2018-02-25T19:47:18.129Z,6.90
2018-02-25T19:49:45.698Z,5.40
2018-02-25T19:52:13.262Z,6.77
2018-02-25T19:54:40.810Z,5.43
2018-02-25T19:57:08.525Z,5.80
2018-02-25T19:59:36.422Z,5.83
2018-02-25T20:02:03.971Z,5.73
2018-02-25T20:04:31.567Z,7.33
2018-02-25T20:06:59.097Z,6.37
2018-02-25T20:09:26.666Z,5.83
2018-02-25T20:11:54.209Z,5.77
2018-02-25T20:14:21.759Z,5.40
2018-02-25T20:16:49.374Z,6.40
2018-02-25T20:19:19.069Z,6.37
2018-02-25T20:21:46.617Z,7.13
2018-02-25T20:24:14.199Z,6.90
2018-02-25T20:26:42.551Z,6.17
2018-02-25T20:29:10.101Z,7.17
2018-02-25T20:31:38.397Z,6.57
2018-02-25T20:34:05.979Z,6.80
2018-02-25T20:36:33.536Z,6.67
2018-02-25T20:39:01.853Z,6.87
2018-02-25T20:41:29.447Z,6.53
2018-02-25T20:43:57.182Z,8.00
2018-02-25T20:46:24.937Z,7.27
2018-02-25T20:48:52.482Z,7.80
2018-02-25T20:51:20.009Z,7.27
2018-02-25T20:53:47.551Z,7.67
2018-02-25T20:56:15.147Z,6.97
2018-02-25T20:58:43.520Z,6.90
2018-02-25T21:01:11.059Z,6.40
2018-02-25T21:03:38.557Z,7.20
2018-02-25T21:06:06.069Z,6.60
2018-02-25T21:08:33.586Z,6.97
2018-02-25T21:11:01.120Z,6.60
2018-02-25T21:13:29.401Z,7.60
2018-02-25T21:15:57.669Z,7.10
2018-02-25T21:18:25.207Z,7.20
2018-02-25T21:20:52.815Z,6.90
2018-02-25T21:23:20.364Z,7.20
2018-02-25T21:25:47.976Z,6.70
2018-02-25T21:28:15.484Z,7.77
2018-02-25T21:30:43.126Z,6.80
2018-02-25T21:33:10.655Z,6.30
2018-02-25T21:35:38.202Z,6.80
2018-02-25T21:38:05.719Z,7.00
2018-02-25T21:40:33.996Z,6.03
2018-02-25T21:43:01.549Z,6.60
2018-02-25T21:45:29.877Z,6.67
2018-02-25T21:47:57.430Z,6.80
2018-02-25T21:50:24.953Z,7.03
2018-02-25T21:52:53.541Z,7.10
2018-02-25T21:55:21.173Z,7.13
2018-02-25T21:57:54.394Z,6.67
2018-02-25T22:00:27.665Z,6.70
2018-02-25T22:03:01.527Z,7.47
2018-02-25T22:05:29.030Z,6.43
2018-02-25T22:07:56.565Z,6.37
2018-02-25T22:10:24.112Z,7.50
2018-02-25T22:12:51.613Z,6.20
2018-02-25T22:15:19.885Z,7.13
2018-02-25T22:17:47.414Z,7.70
2018-02-25T22:20:14.932Z,6.90
2018-02-25T22:22:42.450Z,6.90
2018-02-25T22:25:09.963Z,6.17
2018-02-25T22:27:37.550Z,6.97
2018-02-25T22:30:05.049Z,8.10
2018-02-25T22:32:33.411Z,5.97
2018-02-25T22:35:00.934Z,7.53
2018-02-25T22:37:28.444Z,7.07
2018-02-25T22:39:56.744Z,6.50
2018-02-25T22:42:24.310Z,7.13
2018-02-25T22:44:51.813Z,5.87
2018-02-25T22:47:19.381Z,6.20
2018-02-25T22:49:47.680Z,6.53
2018-02-25T22:52:15.354Z,6.43
2018-02-25T22:54:42.896Z,5.90
2018-02-25T22:57:11.221Z,6.30
2018-02-25T22:59:38.733Z,6.33
2018-02-25T23:02:07.026Z,6.23
2018-02-25T23:04:35.294Z,6.00
2018-02-25T23:07:03.637Z,5.70
2018-02-25T23:09:31.132Z,6.13
2018-02-25T23:11:59.418Z,6.33
2018-02-25T23:14:26.944Z,5.80
2018-02-25T23:16:54.445Z,6.50
2018-02-25T23:19:22.011Z,5.93
2018-02-25T23:21:49.519Z,5.90
2018-02-25T23:24:17.027Z,6.27
2018-02-25T23:26:44.554Z,5.57
2018-02-25T23:29:12.834Z,4.93
2018-02-25T23:31:41.102Z,6.43
2018-02-25T23:34:09.372Z,6.70
2018-02-25T23:36:36.899Z,6.37
2018-02-25T23:39:04.430Z,6.17
2018-02-25T23:41:31.957Z,6.67
2018-02-25T23:44:00.224Z,6.23
2018-02-25T23:46:27.757Z,6.40
2018-02-25T23:48:55.238Z,5.93
2018-02-25T23:51:23.516Z,5.60
2018-02-25T23:53:51.021Z,5.90
2018-02-25T23:56:18.535Z,6.77
2018-02-25T23:58:46.029Z,5.33
